Time;durP1;ratioP1;P1;durP2;ratioP2;P2;SDS_P1;SDS_P2;PMS_P1;PMS_P2;Temp;Humidity;BMP_temperature;BMP_pressure;BME280_temperature;BME280_humidity;BME280_pressure;Samples;Min_cycle;Max_cycle;Signal;HPM_P1;HPM_P2
2023/05/03 00:00:09;;;;;;;2.6;2.4;;;;;;;8.32;100;943.8141;;;;
2023/05/03 00:02:34;;;;;;;2.5;2.3;;;;;;;8.27;100;943.8073;;;;
2023/05/03 00:05:03;;;;;;;34.2;30.7;;;;;;;8.2;100;943.8098;;;;
2023/05/03 00:07:26;;;;;;;11.9;10.8;;;;;;;8.21;100;943.8577;;;;
2023/05/03 00:09:51;;;;;;;3.9;3.6;;;;;;;8.24;100;943.8732;;;;
2023/05/03 00:12:16;;;;;;;2.7;2.5;;;;;;;8.2;100;943.8909;;;;
2023/05/03 00:14:46;;;;;;;2.3;2.1;;;;;;;8.07;100;943.785;;;;
2023/05/03 00:17:11;;;;;;;2.5;2.3;;;;;;;8.05;100;943.8567;;;;
2023/05/03 00:19:38;;;;;;;2.3;2.1;;;;;;;7.93;100;943.8563;;;;
2023/05/03 00:22:03;;;;;;;2.5;2.2;;;;;;;7.83;100;943.8367;;;;
2023/05/03 00:24:29;;;;;;;3;2.2;;;;;;;7.87;100;943.8243;;;;
2023/05/03 00:26:55;;;;;;;2.9;2.6;;;;;;;8;100;943.8231;;;;
2023/05/03 00:29:21;;;;;;;3.3;3;;;;;;;7.96;100;943.8172;;;;
2023/05/03 00:31:45;;;;;;;3.4;3;;;;;;;8.05;100;943.7939;;;;
2023/05/03 00:34:10;;;;;;;3.6;3.3;;;;;;;7.94;100;943.8089;;;;
2023/05/03 00:36:35;;;;;;;3.4;3.1;;;;;;;7.89;100;943.8018;;;;
2023/05/03 00:39:02;;;;;;;2.6;2.4;;;;;;;7.98;100;943.7037;;;;
2023/05/03 00:41:28;;;;;;;3.2;2.5;;;;;;;7.85;100;943.7636;;;;
2023/05/03 00:43:53;;;;;;;3.2;2.5;;;;;;;7.83;100;943.7542;;;;
2023/05/03 00:46:18;;;;;;;2.8;2.4;;;;;;;7.92;100;943.7188;;;;
2023/05/03 00:48:45;;;;;;;2.6;2.4;;;;;;;7.88;100;943.7245;;;;
2023/05/03 00:51:10;;;;;;;2.8;2.5;;;;;;;7.86;100;943.7139;;;;
2023/05/03 00:53:35;;;;;;;2.6;2.4;;;;;;;7.93;100;943.7191;;;;
2023/05/03 00:56:00;;;;;;;2.2;2;;;;;;;7.96;100;943.6292;;;;
2023/05/03 00:58:25;;;;;;;2.6;2.4;;;;;;;7.97;100;943.7517;;;;
2023/05/03 01:01:14;;;;;;;2.4;2.2;;;;;;;8.01;100;943.7;;;;
2023/05/03 01:03:40;;;;;;;2.3;2.1;;;;;;;8.18;100;943.6736;;;;
2023/05/03 01:06:08;;;;;;;2.4;2.2;;;;;;;8.16;100;943.7151;;;;
2023/05/03 01:08:33;;;;;;;2.4;2.2;;;;;;;8.17;100;943.767;;;;
2023/05/03 01:10:58;;;;;;;2;1.8;;;;;;;8.25;100;943.7195;;;;
2023/05/03 01:13:23;;;;;;;2.2;2;;;;;;;8.19;100;943.7883;;;;
2023/05/03 01:15:48;;;;;;;2.1;1.9;;;;;;;8.18;100;943.7293;;;;
2023/05/03 01:18:14;;;;;;;2.4;2.2;;;;;;;8.21;100;943.767;;;;
2023/05/03 01:20:38;;;;;;;2.4;2;;;;;;;8.22;100;943.66;;;;
2023/05/03 01:23:06;;;;;;;2.4;2.2;;;;;;;8.2;100;943.6347;;;;
2023/05/03 01:25:33;;;;;;;2;1.9;;;;;;;8.07;100;943.6699;;;;
2023/05/03 01:28:02;;;;;;;2;1.8;;;;;;;7.9;100;943.7626;;;;
2023/05/03 01:30:27;;;;;;;2.2;2;;;;;;;7.92;100;943.7695;;;;
2023/05/03 01:32:52;;;;;;;2.3;1.9;;;;;;;7.82;100;943.7555;;;;
2023/05/03 01:35:19;;;;;;;2.3;2.1;;;;;;;7.8;100;943.7498;;;;
2023/05/03 01:37:44;;;;;;;2.1;2;;;;;;;7.85;100;943.7633;;;;
2023/05/03 01:40:18;;;;;;;2.2;2;;;;;;;7.74;100;943.8376;;;;
2023/05/03 01:42:45;;;;;;;2.3;2.1;;;;;;;7.77;100;943.8052;;;;
2023/05/03 01:45:17;;;;;;;2.5;2.3;;;;;;;7.69;100;943.734;;;;
2023/05/03 01:47:45;;;;;;;2.2;2;;;;;;;7.61;100;943.7714;;;;
2023/05/03 01:50:10;;;;;;;2.4;2.2;;;;;;;7.61;100;943.7888;;;;
2023/05/03 01:52:38;;;;;;;2.5;2.3;;;;;;;7.5;100;943.7742;;;;
2023/05/03 01:55:03;;;;;;;2.9;2.6;;;;;;;7.46;100;943.7547;;;;
2023/05/03 01:57:30;;;;;;;3;2.7;;;;;;;7.39;100;943.7576;;;;
2023/05/03 01:59:55;;;;;;;2.8;2.6;;;;;;;7.33;100;943.7308;;;;
2023/05/03 02:02:26;;;;;;;2.6;2.4;;;;;;;7.47;100;943.7527;;;;
2023/05/03 02:06:02;;;;;;;4.6;3.2;;;;;;;7.57;100;943.7192;;;;
2023/05/03 02:08:33;;;;;;;2.5;2.3;;;;;;;7.45;100;943.7108;;;;
2023/05/03 02:11:02;;;;;;;2.7;2.5;;;;;;;7.5;100;943.7075;;;;
2023/05/03 02:13:27;;;;;;;2.3;2.1;;;;;;;7.61;100;943.6951;;;;
2023/05/03 02:15:54;;;;;;;3.2;2.7;;;;;;;7.66;100;943.7212;;;;
2023/05/03 02:18:19;;;;;;;2.5;2.3;;;;;;;7.73;100;943.7709;;;;
2023/05/03 02:20:45;;;;;;;3.4;2.7;;;;;;;7.79;100;943.8107;;;;
2023/05/03 02:23:10;;;;;;;3.1;2.8;;;;;;;7.79;100;943.8017;;;;
2023/05/03 02:25:39;;;;;;;2.8;2.6;;;;;;;7.76;100;943.793;;;;
2023/05/03 02:28:08;;;;;;;3.5;2.8;;;;;;;7.71;100;943.7963;;;;
2023/05/03 02:30:33;;;;;;;3.2;2.8;;;;;;;7.71;100;943.825;;;;
2023/05/03 02:33:02;;;;;;;3.9;2.9;;;;;;;7.63;100;943.8409;;;;
2023/05/03 02:35:27;;;;;;;3.9;2.8;;;;;;;7.59;100;943.8766;;;;
2023/05/03 02:37:52;;;;;;;3.8;3;;;;;;;7.5;100;943.8096;;;;
2023/05/03 02:43:53;;;;;;;3;2.7;;;;;;;7.34;100;943.7222;;;;
2023/05/03 02:46:19;;;;;;;3.6;2.7;;;;;;;7.38;100;943.733;;;;
2023/05/03 02:48:50;;;;;;;2.9;2.6;;;;;;;7.41;100;943.7647;;;;
2023/05/03 02:51:15;;;;;;;3;2.5;;;;;;;7.36;100;943.7346;;;;
2023/05/03 02:53:40;;;;;;;2.5;2.3;;;;;;;7.22;100;943.7559;;;;
2023/05/03 02:56:06;;;;;;;2.6;2.4;;;;;;;7.2;100;943.7889;;;;
2023/05/03 02:58:33;;;;;;;2.4;2.2;;;;;;;7.16;100;943.8408;;;;
2023/05/03 03:00:58;;;;;;;2.4;2.2;;;;;;;7.14;100;943.8427;;;;
2023/05/03 03:03:25;;;;;;;3.5;3.2;;;;;;;7.2;100;943.896;;;;
2023/05/03 03:05:50;;;;;;;3.3;3;;;;;;;7.27;100;943.8762;;;;
2023/05/03 03:08:16;;;;;;;3;2.7;;;;;;;7.29;100;943.8839;;;;
2023/05/03 03:10:42;;;;;;;2.7;2.5;;;;;;;7.24;100;943.8293;;;;
2023/05/03 03:13:09;;;;;;;2;1.9;;;;;;;7.14;100;943.8156;;;;
2023/05/03 03:15:34;;;;;;;2.6;2.1;;;;;;;7.08;100;943.832;;;;
2023/05/03 03:17:59;;;;;;;2.7;2.5;;;;;;;7.03;100;943.9189;;;;
2023/05/03 03:20:24;;;;;;;2.9;2.4;;;;;;;7;100;943.9344;;;;
2023/05/03 03:22:49;;;;;;;2.5;2.3;;;;;;;6.98;100;943.9545;;;;
2023/05/03 03:25:17;;;;;;;2.5;2.2;;;;;;;6.97;100;944.0269;;;;
2023/05/03 03:27:42;;;;;;;2.9;2.6;;;;;;;6.94;100;943.9731;;;;
2023/05/03 03:31:24;;;;;;;2.5;2.3;;;;;;;6.93;100;944.0178;;;;
2023/05/03 03:33:33;;;;;;;5.6;3.3;;;;;;;6.9;100;944.0436;;;;
2023/05/03 03:35:58;;;;;;;4.1;3.1;;;;;;;6.8;100;944.0028;;;;
2023/05/03 03:38:24;;;;;;;3.3;2.8;;;;;;;6.87;100;943.9899;;;;
2023/05/03 03:40:49;;;;;;;3.7;2.9;;;;;;;6.96;100;943.988;;;;
2023/05/03 03:43:17;;;;;;;3.3;2.7;;;;;;;6.94;100;943.9794;;;;
2023/05/03 03:45:42;;;;;;;3.2;2.9;;;;;;;6.94;100;943.9372;;;;
2023/05/03 03:48:07;;;;;;;3;2.7;;;;;;;6.88;100;943.8705;;;;
2023/05/03 03:50:33;;;;;;;3.1;2.5;;;;;;;6.84;100;943.8899;;;;
2023/05/03 03:52:59;;;;;;;2.3;2.1;;;;;;;6.84;100;943.863;;;;
2023/05/03 03:55:24;;;;;;;2.7;2.5;;;;;;;6.85;100;943.8742;;;;
2023/05/03 03:57:51;;;;;;;3.8;3.3;;;;;;;6.81;100;943.9292;;;;
2023/05/03 04:02:45;;;;;;;9.1;8.3;;;;;;;6.72;100;943.9228;;;;
2023/05/03 04:05:17;;;;;;;5.9;5.4;;;;;;;6.78;100;943.8558;;;;
2023/05/03 04:07:48;;;;;;;5.1;4.7;;;;;;;6.81;100;943.9348;;;;
2023/05/03 04:10:17;;;;;;;3.6;3.1;;;;;;;6.73;99.56641;943.9562;;;;
2023/05/03 04:12:42;;;;;;;3.3;2.9;;;;;;;6.73;100;943.9579;;;;
2023/05/03 04:15:19;;;;;;;3.1;2.8;;;;;;;6.78;100;943.9352;;;;
2023/05/03 04:17:49;;;;;;;3.2;2.9;;;;;;;6.82;100;943.8994;;;;
2023/05/03 04:20:23;;;;;;;3.1;2.6;;;;;;;6.86;100;943.9331;;;;
2023/05/03 04:22:52;;;;;;;3.1;2.5;;;;;;;6.9;100;943.8995;;;;
2023/05/03 04:25:20;;;;;;;2.8;2.5;;;;;;;6.87;100;943.9597;;;;
2023/05/03 04:27:47;;;;;;;2.6;2.4;;;;;;;6.85;99.83398;943.9731;;;;
2023/05/03 04:30:24;;;;;;;3.2;2.9;;;;;;;6.77;99.9502;943.9672;;;;
2023/05/03 04:32:57;;;;;;;2.6;2.4;;;;;;;6.75;99.90137;943.9356;;;;
2023/05/03 04:35:19;;;;;;;2.9;2.6;;;;;;;6.78;99.99805;943.9097;;;;
2023/05/03 04:37:46;;;;;;;3.4;2.6;;;;;;;6.72;100;943.899;;;;
2023/05/03 04:40:11;;;;;;;3.1;2.8;;;;;;;6.67;100;943.8943;;;;
2023/05/03 04:42:41;;;;;;;2.8;2.6;;;;;;;6.56;100;943.941;;;;
2023/05/03 04:45:08;;;;;;;3.3;3;;;;;;;6.48;100;943.95;;;;
2023/05/03 04:47:35;;;;;;;27.5;16.3;;;;;;;6.52;100;943.9078;;;;
2023/05/03 04:50:00;;;;;;;8.3;5.3;;;;;;;6.68;100;943.9817;;;;
2023/05/03 04:52:27;;;;;;;5.8;4.1;;;;;;;6.8;100;943.869;;;;
2023/05/03 04:54:53;;;;;;;4.1;3.7;;;;;;;6.77;100;943.9458;;;;
2023/05/03 04:57:20;;;;;;;3.6;3.3;;;;;;;6.81;99.83691;943.8951;;;;
2023/05/03 04:59:45;;;;;;;3.2;2.9;;;;;;;6.79;99.75098;943.868;;;;
2023/05/03 05:02:12;;;;;;;3.6;2.9;;;;;;;6.83;99.47852;943.9534;;;;
2023/05/03 05:05:06;;;;;;;3.1;2.8;;;;;;;6.9;99.30078;943.9517;;;;
2023/05/03 05:07:32;;;;;;;2.7;2.5;;;;;;;6.79;98.94922;943.991;;;;
2023/05/03 05:09:56;;;;;;;3.8;3.4;;;;;;;6.76;99.13379;944.0041;;;;
2023/05/03 05:12:23;;;;;;;3.4;3.1;;;;;;;6.67;99.47461;944.0018;;;;
2023/05/03 05:14:47;;;;;;;3.4;2.9;;;;;;;6.75;99.54785;943.9537;;;;
2023/05/03 05:17:15;;;;;;;3.4;3.1;;;;;;;6.79;99.36621;943.9353;;;;
2023/05/03 05:19:39;;;;;;;2.9;2.7;;;;;;;6.79;99.21875;943.9075;;;;
2023/05/03 05:22:05;;;;;;;3.7;2.8;;;;;;;6.89;98.96094;943.9113;;;;
2023/05/03 05:24:30;;;;;;;8.1;5.9;;;;;;;7.69;99.29199;943.8711;;;;
2023/05/03 05:29:26;;;;;;;2.9;2.4;;;;;;;11.05;84.42871;943.9892;;;;
2023/05/03 05:31:52;;;;;;;2;1.9;;;;;;;12.63;75.50293;943.9385;;;;
2023/05/03 05:34:17;;;;;;;2.1;1.9;;;;;;;13.18;72.27832;943.9422;;;;
2023/05/03 05:36:45;;;;;;;3.2;2.7;;;;;;;13.08;71.75684;944.041;;;;
2023/05/03 05:39:10;;;;;;;3.2;2.9;;;;;;;13.71;68.73242;944.0511;;;;
2023/05/03 05:41:40;;;;;;;2.6;2.4;;;;;;;14;68.74414;943.9634;;;;
2023/05/03 05:44:06;;;;;;;2;1.8;;;;;;;14.09;68.30762;943.9378;;;;
2023/05/03 05:46:30;;;;;;;1.7;1.6;;;;;;;13.9;68.69238;943.91;;;;
2023/05/03 05:48:58;;;;;;;1.6;1.5;;;;;;;14.56;66.63086;943.9326;;;;
2023/05/03 05:51:29;;;;;;;1.5;1.4;;;;;;;15.09;64.02441;943.9017;;;;
2023/05/03 05:53:57;;;;;;;2;1.7;;;;;;;16.96;58.97949;943.8843;;;;
2023/05/03 05:56:22;;;;;;;1.2;1.2;;;;;;;16.21;59.63086;943.8831;;;;
2023/05/03 05:58:49;;;;;;;1.6;1.4;;;;;;;17.22;56.12793;943.9178;;;;
2023/05/03 06:01:14;;;;;;;1.3;1.2;;;;;;;17.31;55.48828;943.9034;;;;
2023/05/03 06:03:43;;;;;;;1.3;1.2;;;;;;;18.36;53.71484;943.8614;;;;
2023/05/03 06:06:08;;;;;;;1.3;1.2;;;;;;;18.09;53.38184;943.856;;;;
2023/05/03 06:08:35;;;;;;;1.4;1.3;;;;;;;18.88;53.23242;943.8278;;;;
2023/05/03 06:11:01;;;;;;;1.3;1.2;;;;;;;18.89;51.44043;943.8576;;;;
2023/05/03 06:13:30;;;;;;;1.3;1.2;;;;;;;18.08;51.24219;943.8915;;;;
2023/05/03 06:15:54;;;;;;;1.1;1;;;;;;;16.15;56.56836;943.8777;;;;
2023/05/03 06:18:21;;;;;;;1.1;1.1;;;;;;;15.57;59.57813;943.9409;;;;
2023/05/03 06:20:46;;;;;;;1.6;1.2;;;;;;;16.14;58.91504;943.8745;;;;
2023/05/03 06:23:13;;;;;;;1.5;1.3;;;;;;;17.58;53.7832;943.8967;;;;
2023/05/03 06:25:38;;;;;;;1.3;1.2;;;;;;;16.23;55.85156;943.8978;;;;
2023/05/03 06:28:05;;;;;;;1.3;1.2;;;;;;;15.96;58.69434;943.9348;;;;
2023/05/03 06:30:30;;;;;;;1.1;1;;;;;;;16.03;59.15527;943.9398;;;;
2023/05/03 06:32:57;;;;;;;1.3;1.2;;;;;;;16.4;58.02344;943.9189;;;;
2023/05/03 06:35:22;;;;;;;1.4;1.3;;;;;;;16.02;57.78809;943.8513;;;;
2023/05/03 06:37:52;;;;;;;1.5;1.4;;;;;;;15.85;57.89355;943.9014;;;;
2023/05/03 06:40:25;;;;;;;1.6;1.5;;;;;;;14.59;62.625;943.9031;;;;
2023/05/03 06:48:59;;;;;;;1.5;1.4;;;;;;;17.2;56.20605;943.8354;;;;
2023/05/03 06:51:27;;;;;;;1.4;1.2;;;;;;;16.38;58.73828;943.9174;;;;
2023/05/03 06:53:49;;;;;;;1.2;1.1;;;;;;;16.18;57.9834;943.8992;;;;
2023/05/03 06:56:14;;;;;;;1.3;1.2;;;;;;;16.55;57.53418;943.88;;;;
2023/05/03 06:58:39;;;;;;;1.3;1.1;;;;;;;19.03;50.95605;943.8551;;;;
2023/05/03 07:01:08;;;;;;;1.3;1.2;;;;;;;19.47;48.03516;943.8297;;;;
2023/05/03 07:03:33;;;;;;;0.9;0.9;;;;;;;18.92;52.66504;943.8233;;;;
2023/05/03 07:05:59;;;;;;;1.5;0.9;;;;;;;20.61;45.8125;943.7851;;;;
2023/05/03 07:09:12;;;;;;;0.9;0.9;;;;;;;20.97;45.08887;943.7523;;;;
2023/05/03 07:11:48;;;;;;;1;1;;;;;;;22.17;41.93945;943.7134;;;;
2023/05/03 07:14:06;;;;;;;1.5;1;;;;;;;22.67;41.0127;943.7726;;;;
2023/05/03 07:16:37;;;;;;;1.3;1.2;;;;;;;21.56;43.96582;943.7592;;;;
2023/05/03 07:19:02;;;;;;;2.3;1.1;;;;;;;23.36;42.95703;943.6948;;;;
2023/05/03 07:21:30;;;;;;;1.1;1;;;;;;;23.59;39.87305;943.6255;;;;
2023/05/03 07:23:55;;;;;;;1.2;1.1;;;;;;;24.17;38.57129;943.5857;;;;
2023/05/03 07:26:25;;;;;;;1.7;1.2;;;;;;;23.86;38.32129;943.6106;;;;
2023/05/03 07:28:48;;;;;;;1.1;1.1;;;;;;;23.59;40.81445;943.6093;;;;
2023/05/03 07:31:13;;;;;;;1.3;1.2;;;;;;;23.68;41.04688;943.6163;;;;
2023/05/03 07:34:09;;;;;;;1.5;1.4;;;;;;;22.47;43.45801;943.6312;;;;
2023/05/03 07:37:10;;;;;;;1.6;1.4;;;;;;;24.34;39.64648;943.5886;;;;
2023/05/03 07:39:40;;;;;;;1.4;1.3;;;;;;;24.33;40.5752;943.5817;;;;
2023/05/03 07:42:10;;;;;;;1.3;1.2;;;;;;;24.3;40.00781;943.6006;;;;
2023/05/03 07:45:14;;;;;;;1.3;1.2;;;;;;;24.15;40.58398;943.5547;;;;
2023/05/03 07:47:45;;;;;;;1.4;1.2;;;;;;;22.07;41.94238;943.6227;;;;
2023/05/03 07:50:13;;;;;;;1;1;;;;;;;22.54;44.3916;943.5731;;;;
2023/05/03 07:52:38;;;;;;;1.3;1.2;;;;;;;24.52;39.26172;943.5204;;;;
2023/05/03 07:55:08;;;;;;;1.4;1.3;;;;;;;23.77;37.47754;943.4637;;;;
2023/05/03 07:57:33;;;;;;;1.3;1.2;;;;;;;22.06;44.21387;943.465;;;;
2023/05/03 08:00:03;;;;;;;1.5;1.4;;;;;;;23.81;42.34082;943.3956;;;;
2023/05/03 08:02:27;;;;;;;1.2;1.2;;;;;;;23.33;40.79199;943.4615;;;;
2023/05/03 08:04:55;;;;;;;1.6;1.2;;;;;;;24.36;40.2373;943.4152;;;;
2023/05/03 08:07:18;;;;;;;1.3;1.2;;;;;;;23.94;40.08203;943.416;;;;
2023/05/03 08:09:47;;;;;;;1.2;1.1;;;;;;;24.26;39.55664;943.424;;;;
2023/05/03 08:12:11;;;;;;;1.2;0.9;;;;;;;24.97;37.50781;943.4311;;;;
2023/05/03 08:14:37;;;;;;;1.3;1.2;;;;;;;25.54;37.60352;943.4064;;;;
2023/05/03 08:17:03;;;;;;;1;1;;;;;;;25.67;37.38965;943.4579;;;;
2023/05/03 08:19:30;;;;;;;1.2;1.2;;;;;;;25.09;37.36523;943.4163;;;;
2023/05/03 08:21:55;;;;;;;1.2;1.1;;;;;;;25.93;34.01758;943.4169;;;;
2023/05/03 08:24:23;;;;;;;1.5;1.4;;;;;;;25.17;36.66309;943.4012;;;;
2023/05/03 08:26:48;;;;;;;1.4;1.3;;;;;;;25.54;35.57129;943.4391;;;;
2023/05/03 08:29:15;;;;;;;1.1;1.1;;;;;;;25.21;36.48926;943.4045;;;;
2023/05/03 08:31:41;;;;;;;1.2;1.1;;;;;;;24.36;38.43555;943.3956;;;;
2023/05/03 08:34:09;;;;;;;1.3;1.2;;;;;;;25.49;37.19727;943.4323;;;;
2023/05/03 08:36:34;;;;;;;1.3;1.2;;;;;;;25.89;35.29199;943.3736;;;;
2023/05/03 08:39:02;;;;;;;0.9;0.9;;;;;;;25.49;37.20898;943.394;;;;
2023/05/03 08:41:26;;;;;;;1.3;1.2;;;;;;;26.59;35.21582;943.3217;;;;
2023/05/03 08:47:43;;;;;;;1.3;1.2;;;;;;;28.7;31.44434;943.2436;;;;
2023/05/03 08:50:05;;;;;;;1;1;;;;;;;27.11;34.19043;943.2025;;;;
2023/05/03 08:52:32;;;;;;;1.3;1.2;;;;;;;28.07;32.13672;943.2287;;;;
2023/05/03 08:54:57;;;;;;;1;1;;;;;;;28.47;31.60645;943.158;;;;
2023/05/03 08:57:24;;;;;;;1.3;1.2;;;;;;;28.55;31.5752;943.1704;;;;
2023/05/03 08:59:49;;;;;;;1.1;1.1;;;;;;;28.58;31.28027;943.1219;;;;
2023/05/03 09:02:17;;;;;;;2.4;1.3;;;;;;;25.22;37.49316;943.1612;;;;
2023/05/03 09:04:42;;;;;;;1.5;1.3;;;;;;;24.1;39.00098;943.0617;;;;
2023/05/03 09:07:09;;;;;;;1.9;1.1;;;;;;;24.19;39.75098;943.1105;;;;
2023/05/03 09:09:34;;;;;;;1.4;1.2;;;;;;;23.78;41.40918;943.116;;;;
2023/05/03 09:12:00;;;;;;;1.4;1.3;;;;;;;23.4;41.96094;943.0076;;;;
2023/05/03 09:14:25;;;;;;;2.2;1.6;;;;;;;22.58;45.59277;943.0095;;;;
2023/05/03 09:16:53;;;;;;;1.8;1.7;;;;;;;22.15;45.2666;943.0147;;;;
2023/05/03 09:19:18;;;;;;;1.4;1.3;;;;;;;22.67;44.0293;942.9827;;;;
2023/05/03 09:21:45;;;;;;;1.3;1.2;;;;;;;22.89;43.43945;942.9182;;;;
2023/05/03 09:24:10;;;;;;;1.2;1.2;;;;;;;23.17;43.19727;942.9698;;;;
2023/05/03 09:26:41;;;;;;;1.5;1.4;;;;;;;22.84;43.24707;942.8962;;;;
2023/05/03 09:29:08;;;;;;;1.6;1.4;;;;;;;23.43;42.28223;942.9489;;;;
2023/05/03 09:31:35;;;;;;;1.5;1.4;;;;;;;23.1;43.33203;942.8412;;;;
2023/05/03 09:34:04;;;;;;;1.6;1.5;;;;;;;23.18;42.1875;942.8752;;;;
2023/05/03 09:36:31;;;;;;;1.6;1.5;;;;;;;23.2;42.87012;942.8892;;;;
2023/05/03 09:38:56;;;;;;;1.5;1.4;;;;;;;22.86;43.08496;942.933;;;;
2023/05/03 09:41:23;;;;;;;1.7;1.6;;;;;;;22.69;45.92188;942.8984;;;;
2023/05/03 09:43:47;;;;;;;1.7;1.6;;;;;;;23;43.28613;942.8425;;;;
2023/05/03 09:46:15;;;;;;;2.1;1.7;;;;;;;22;45.89551;942.8795;;;;
2023/05/03 09:48:40;;;;;;;1.8;1.7;;;;;;;22.24;45.14746;942.7593;;;;
2023/05/03 09:51:50;;;;;;;1.5;1.4;;;;;;;22.69;43.65527;942.7921;;;;
2023/05/03 09:54:19;;;;;;;1.8;1.6;;;;;;;22.95;43.13965;942.7459;;;;
2023/05/03 09:56:46;;;;;;;4.4;1.6;;;;;;;22.53;43.19336;942.7456;;;;
2023/05/03 09:59:13;;;;;;;1.7;1.6;;;;;;;22.44;46.2002;942.7415;;;;
2023/05/03 10:01:38;;;;;;;1.9;1.8;;;;;;;22.3;44.32031;942.6472;;;;
2023/05/03 10:04:04;;;;;;;2;1.8;;;;;;;21.61;44.79102;942.7003;;;;
2023/05/03 10:06:29;;;;;;;1.8;1.7;;;;;;;21.5;46.1377;942.6967;;;;
2023/05/03 10:08:55;;;;;;;2.2;1.7;;;;;;;21.86;47.6748;942.6328;;;;
2023/05/03 10:11:21;;;;;;;1.9;1.7;;;;;;;22.35;45.82617;942.6361;;;;
2023/05/03 10:13:46;;;;;;;1.8;1.7;;;;;;;22.61;45.12598;942.5759;;;;
2023/05/03 10:16:12;;;;;;;1.8;1.7;;;;;;;22.11;46.70508;942.5792;;;;
2023/05/03 10:18:37;;;;;;;1.8;1.7;;;;;;;22.44;44.55664;942.6273;;;;
2023/05/03 10:21:02;;;;;;;1.7;1.6;;;;;;;22.98;44.70605;942.5181;;;;
2023/05/03 10:23:27;;;;;;;2.1;1.9;;;;;;;23.18;42.70508;942.5159;;;;
2023/05/03 10:25:55;;;;;;;1.6;1.5;;;;;;;22.85;44.34082;942.5556;;;;
2023/05/03 10:28:20;;;;;;;2.1;1.9;;;;;;;23.37;45.14551;942.567;;;;
2023/05/03 10:30:46;;;;;;;1.6;1.5;;;;;;;22.43;45.3418;942.4967;;;;
2023/05/03 10:33:11;;;;;;;1.5;1.3;;;;;;;22.79;44.9209;942.4789;;;;
2023/05/03 10:35:39;;;;;;;1.9;1.8;;;;;;;22.22;46.95215;942.4803;;;;
2023/05/03 10:38:04;;;;;;;1.9;1.8;;;;;;;22;46.66895;942.4075;;;;
2023/05/03 10:40:30;;;;;;;1.9;1.8;;;;;;;22.25;46.25098;942.4092;;;;
2023/05/03 10:42:59;;;;;;;1.8;1.7;;;;;;;21.25;50.27734;942.4127;;;;
2023/05/03 10:48:45;;;;;;;2.5;2;;;;;;;23.29;42.92676;942.3787;;;;
2023/05/03 10:51:09;;;;;;;1.6;1.5;;;;;;;24.18;42.4707;942.3622;;;;
2023/05/03 10:53:34;;;;;;;2.1;1.9;;;;;;;23.59;42.60352;942.3805;;;;
2023/05/03 10:56:00;;;;;;;2;1.8;;;;;;;24.42;40.79688;942.4221;;;;
2023/05/03 10:58:26;;;;;;;1.8;1.7;;;;;;;25.06;39.32129;942.4003;;;;
2023/05/03 11:00:51;;;;;;;2.2;2;;;;;;;24.46;40.31738;942.4153;;;;
2023/05/03 11:03:18;;;;;;;1.7;1.6;;;;;;;25.12;39.51465;942.3655;;;;
2023/05/03 11:05:45;;;;;;;1.8;1.5;;;;;;;23.97;40.79102;942.372;;;;
2023/05/03 11:08:10;;;;;;;1.7;1.6;;;;;;;23.01;42.85254;942.423;;;;
2023/05/03 11:10:37;;;;;;;2;1.8;;;;;;;22.35;44.71289;942.4242;;;;
2023/05/03 11:13:02;;;;;;;1.9;1.8;;;;;;;21.3;47.10059;942.468;;;;
2023/05/03 11:15:30;;;;;;;2.1;1.5;;;;;;;21.41;47.74414;942.3793;;;;
2023/05/03 11:17:55;;;;;;;1.9;1.8;;;;;;;20.44;50.43066;942.3405;;;;
2023/05/03 11:20:22;;;;;;;1.8;1.7;;;;;;;19.79;54.32031;942.317;;;;
2023/05/03 11:22:47;;;;;;;1.9;1.7;;;;;;;20.31;51.02246;942.307;;;;
2023/05/03 11:25:15;;;;;;;2;1.8;;;;;;;20.88;53.23828;942.3707;;;;
2023/05/03 11:30:04;;;;;;;1.7;1.6;;;;;;;23.05;46.78027;942.322;;;;
2023/05/03 11:32:32;;;;;;;1.6;1.5;;;;;;;23.4;43.16113;942.3636;;;;
2023/05/03 11:34:58;;;;;;;1.5;1.4;;;;;;;22.64;44.4834;942.3733;;;;
2023/05/03 11:37:25;;;;;;;1.6;1.5;;;;;;;22.57;44.66504;942.3067;;;;
2023/05/03 11:39:50;;;;;;;1.5;1.4;;;;;;;23.23;44.64844;942.3506;;;;
2023/05/03 11:42:19;;;;;;;2;1.5;;;;;;;23.65;42.2207;942.3585;;;;
2023/05/03 11:44:45;;;;;;;1.6;1.5;;;;;;;22.58;44.23145;942.351;;;;
2023/05/03 11:47:09;;;;;;;1.4;1.3;;;;;;;21.47;46.30957;942.3409;;;;
2023/05/03 11:49:37;;;;;;;1.6;1.5;;;;;;;20.88;47.1709;942.3189;;;;
2023/05/03 11:52:02;;;;;;;1.7;1.6;;;;;;;20.73;48.82715;942.2994;;;;
2023/05/03 11:54:27;;;;;;;2;1.6;;;;;;;20.84;48.60547;942.2957;;;;
2023/05/03 11:56:55;;;;;;;1.5;1.4;;;;;;;21.22;49.33691;942.3756;;;;
2023/05/03 11:59:19;;;;;;;1.7;1.6;;;;;;;21.08;47.90723;942.3028;;;;
2023/05/03 12:01:48;;;;;;;2;1.6;;;;;;;20.52;48.17285;942.2975;;;;
2023/05/03 12:04:13;;;;;;;2;1.8;;;;;;;20.04;48.96094;942.2372;;;;
2023/05/03 12:06:38;;;;;;;2.2;1.6;;;;;;;19.63;49.66113;942.2214;;;;
2023/05/03 12:09:03;;;;;;;1.6;1.5;;;;;;;19.99;50.39063;942.1936;;;;
2023/05/03 12:11:28;;;;;;;1.9;1.7;;;;;;;20.34;50.88574;942.2092;;;;
2023/05/03 12:13:57;;;;;;;1.6;1.5;;;;;;;20.59;49.83984;942.1866;;;;
2023/05/03 12:16:21;;;;;;;1.5;1.4;;;;;;;21.11;48.34277;942.1806;;;;
2023/05/03 12:18:48;;;;;;;1.6;1.5;;;;;;;21.27;48.93359;942.14;;;;
2023/05/03 12:21:14;;;;;;;1.5;1.4;;;;;;;19.95;51.76172;942.1581;;;;
2023/05/03 12:23:37;;;;;;;2;1.8;;;;;;;19.89;50.83398;942.1172;;;;
2023/05/03 12:26:02;;;;;;;1.7;1.5;;;;;;;19.41;53.42383;942.1818;;;;
2023/05/03 12:28:27;;;;;;;1.6;1.5;;;;;;;18.99;51.26563;942.1514;;;;
2023/05/03 12:30:56;;;;;;;1.5;1.4;;;;;;;18.66;55.61328;942.1686;;;;
2023/05/03 12:33:21;;;;;;;1.4;1.3;;;;;;;19.47;52.83691;942.1753;;;;
2023/05/03 12:35:48;;;;;;;4;1.7;;;;;;;20;50.19434;942.0567;;;;
2023/05/03 12:38:13;;;;;;;1.8;1.4;;;;;;;20.09;50.66992;942.0415;;;;
2023/05/03 12:40:39;;;;;;;1.6;1.5;;;;;;;19.75;50.62012;941.9824;;;;
2023/05/03 12:43:04;;;;;;;1.6;1.5;;;;;;;19.74;51.34082;942.0069;;;;
2023/05/03 12:45:48;;;;;;;1.6;1.5;;;;;;;19.78;49.39844;941.9962;;;;
2023/05/03 12:48:16;;;;;;;1.9;1.7;;;;;;;19.22;50.48926;941.9758;;;;
2023/05/03 12:50:41;;;;;;;1.8;1.7;;;;;;;19;50.21973;941.8397;;;;
2023/05/03 12:53:09;;;;;;;2.6;1.7;;;;;;;18.98;52.02246;941.8666;;;;
2023/05/03 12:55:34;;;;;;;1.6;1.5;;;;;;;18.65;52.10059;941.8339;;;;
2023/05/03 12:57:59;;;;;;;1.6;1.4;;;;;;;18.73;52.35254;941.9109;;;;
2023/05/03 13:00:26;;;;;;;1.5;1.4;;;;;;;19.19;49.18164;941.8359;;;;
2023/05/03 13:02:50;;;;;;;2;1.3;;;;;;;19.24;51.35352;941.7763;;;;
2023/05/03 13:05:19;;;;;;;1.4;1.3;;;;;;;19.13;51.36523;941.7916;;;;
2023/05/03 13:07:43;;;;;;;1.8;1.3;;;;;;;19.61;53.72754;941.7319;;;;
2023/05/03 13:10:11;;;;;;;1.5;1.4;;;;;;;19.03;51.6543;941.7798;;;;
2023/05/03 13:12:36;;;;;;;1.4;1.3;;;;;;;18.53;52.72461;941.7336;;;;
2023/05/03 13:15:04;;;;;;;1.6;1.3;;;;;;;18.68;50.97461;941.7068;;;;
2023/05/03 13:17:29;;;;;;;1.7;1.6;;;;;;;18.95;54.43945;941.7147;;;;
2023/05/03 13:19:57;;;;;;;1.6;1.4;;;;;;;18.8;54.36328;941.6708;;;;
2023/05/03 13:22:22;;;;;;;1.6;1.5;;;;;;;19.02;53.76074;941.6844;;;;
2023/05/03 13:24:47;;;;;;;1.8;1.4;;;;;;;19.38;49.77344;941.6848;;;;
2023/05/03 13:28:02;;;;;;;1.8;1.7;;;;;;;19.59;49.37793;941.6677;;;;
2023/05/03 13:30:33;;;;;;;1.4;1.3;;;;;;;19.66;49.16406;941.6948;;;;
2023/05/03 13:33:01;;;;;;;1.4;1.3;;;;;;;19.56;48.48828;941.6383;;;;
2023/05/03 13:35:39;;;;;;;1.4;1.3;;;;;;;19.5;51.39551;941.5737;;;;
2023/05/03 13:38:06;;;;;;;1.6;1.5;;;;;;;19.47;48.88574;941.6052;;;;
2023/05/03 13:41:09;;;;;;;1.6;1.4;;;;;;;19.65;49.32617;941.5698;;;;
2023/05/03 13:43:35;;;;;;;1.3;1.2;;;;;;;20.21;46.64551;941.6062;;;;
2023/05/03 13:46:00;;;;;;;1.6;1.3;;;;;;;20.63;48.47754;941.6203;;;;
2023/05/03 13:48:25;;;;;;;1.5;1.4;;;;;;;20.2;48.25586;941.5779;;;;
2023/05/03 13:50:51;;;;;;;1.5;1.4;;;;;;;19.94;48.0625;941.527;;;;
2023/05/03 13:53:17;;;;;;;1.4;1.3;;;;;;;20.06;47.09668;941.4623;;;;
2023/05/03 13:55:43;;;;;;;1.4;1.3;;;;;;;20.02;46.59082;941.4623;;;;
2023/05/03 13:58:08;;;;;;;1.6;1.5;;;;;;;19.76;48.37012;941.4924;;;;
2023/05/03 14:00:38;;;;;;;1.4;1.3;;;;;;;19.54;50.30371;941.449;;;;
2023/05/03 14:05:30;;;;;;;1.6;1.5;;;;;;;19.11;52.7002;941.4249;;;;
2023/05/03 14:07:58;;;;;;;1.4;1.3;;;;;;;19.21;51.10547;941.4543;;;;
2023/05/03 14:10:23;;;;;;;1.2;1.1;;;;;;;19.23;50.26758;941.4141;;;;
2023/05/03 14:12:48;;;;;;;1.5;1.4;;;;;;;19.17;48.31738;941.3769;;;;
2023/05/03 14:15:14;;;;;;;1.5;1.4;;;;;;;19.47;48.75879;941.4186;;;;
2023/05/03 14:17:39;;;;;;;1.5;1.4;;;;;;;19.66;49.07031;941.4138;;;;
2023/05/03 14:20:09;;;;;;;1.2;1.1;;;;;;;19.87;47.18164;941.4612;;;;
2023/05/03 14:22:29;;;;;;;1.6;1.5;;;;;;;19.98;46.1543;941.4824;;;;
2023/05/03 14:24:57;;;;;;;1.2;1.2;;;;;;;20.2;46.24805;941.5092;;;;
2023/05/03 14:27:22;;;;;;;1.3;1.2;;;;;;;20.41;45.73242;941.4194;;;;
2023/05/03 14:29:49;;;;;;;1.5;1.4;;;;;;;20.28;48.43848;941.5038;;;;
2023/05/03 14:32:14;;;;;;;1.4;1.3;;;;;;;19.73;48.14551;941.4542;;;;
2023/05/03 14:34:41;;;;;;;1.6;1.5;;;;;;;19.26;51.93848;941.3972;;;;
2023/05/03 14:37:06;;;;;;;1.7;1.6;;;;;;;19.06;50.91406;941.408;;;;
2023/05/03 14:39:52;;;;;;;2.8;1.7;;;;;;;18.99;52.89551;941.3864;;;;
2023/05/03 14:42:10;;;;;;;2;1.5;;;;;;;18.74;52.00488;941.4395;;;;
2023/05/03 14:44:35;;;;;;;1.8;1.7;;;;;;;18.67;49.82129;941.415;;;;
2023/05/03 14:47:05;;;;;;;1.6;1.5;;;;;;;18.81;50.54785;941.3641;;;;
2023/05/03 14:49:51;;;;;;;1.4;1.3;;;;;;;18.84;49.16602;941.4244;;;;
2023/05/03 14:52:17;;;;;;;1.7;1.6;;;;;;;18.92;49.34961;941.4609;;;;
2023/05/03 14:57:52;;;;;;;1.6;1.5;;;;;;;19;49.95215;941.4022;;;;
2023/05/03 15:00:18;;;;;;;1.7;1.6;;;;;;;18.99;47.44824;941.4136;;;;
2023/05/03 15:02:48;;;;;;;2.1;1.8;;;;;;;18.97;47.86426;941.3406;;;;
2023/05/03 15:07:59;;;;;;;2.2;1.6;;;;;;;18.97;47.45703;941.318;;;;
2023/05/03 15:10:25;;;;;;;1.5;1.4;;;;;;;19.11;47.07715;941.3013;;;;
2023/05/03 15:12:50;;;;;;;1.4;1.3;;;;;;;19.09;48.20313;941.3155;;;;
2023/05/03 15:15:23;;;;;;;1.8;1.7;;;;;;;19.01;48.94043;941.3513;;;;
2023/05/03 15:17:52;;;;;;;1.7;1.6;;;;;;;19;48.54395;941.2949;;;;
2023/05/03 15:20:21;;;;;;;3.6;1.6;;;;;;;18.91;49.90723;941.3215;;;;
2023/05/03 15:22:46;;;;;;;1.4;1.3;;;;;;;18.9;47.99707;941.3072;;;;
2023/05/03 15:25:18;;;;;;;1.5;1.4;;;;;;;18.97;47.94727;941.1816;;;;